createdAt,value
2023-04-12T00:00:57.768Z,7.79
2023-04-12T00:03:03.554Z,7.77
2023-04-12T00:05:09.955Z,7.73
2023-04-12T00:07:14.845Z,7.73
2023-04-12T00:09:19.778Z,7.74
2023-04-12T00:11:28.009Z,7.75
2023-04-12T00:13:33.500Z,7.77
2023-04-12T00:15:41.413Z,7.75
2023-04-12T00:17:52.313Z,7.75
2023-04-12T00:19:59.005Z,7.79
2023-04-12T00:22:07.604Z,7.76
2023-04-12T00:24:12.645Z,7.79
2023-04-12T00:26:17.792Z,7.79
2023-04-12T00:28:23.961Z,7.77
2023-04-12T00:30:29.092Z,7.79
2023-04-12T00:32:37.870Z,7.83
2023-04-12T00:34:42.911Z,7.83
2023-04-12T00:36:47.845Z,7.75
2023-04-12T00:38:53.075Z,7.71
2023-04-12T00:40:58.296Z,7.72
2023-04-12T00:43:04.802Z,7.71
2023-04-12T00:45:10.797Z,7.69
2023-04-12T00:47:15.965Z,7.69
2023-04-12T00:49:24.520Z,7.70
2023-04-12T00:51:33.396Z,7.74
2023-04-12T00:53:39.388Z,7.73
2023-04-12T00:55:47.045Z,7.73
2023-04-12T00:57:55.114Z,7.70
2023-04-12T01:00:00.259Z,7.68
2023-04-12T01:02:05.918Z,7.69
2023-04-12T01:04:14.541Z,7.63
2023-04-12T01:06:34.334Z,7.65
2023-04-12T01:08:47.481Z,7.66
2023-04-12T01:10:56.249Z,7.68
2023-04-12T01:13:14.681Z,7.70
2023-04-12T01:15:24.656Z,7.67
2023-04-12T01:17:38.183Z,7.74
2023-04-12T01:19:59.261Z,7.71
2023-04-12T01:22:19.659Z,7.68
2023-04-12T01:24:37.905Z,7.66
2023-04-12T01:26:49.166Z,7.66
2023-04-12T01:28:58.836Z,7.65
2023-04-12T01:31:05.910Z,7.64
2023-04-12T01:33:14.655Z,7.65
2023-04-12T01:35:25.313Z,7.63
2023-04-12T01:37:31.042Z,7.64
2023-04-12T01:39:37.043Z,7.61
2023-04-12T01:41:49.308Z,7.64
2023-04-12T01:43:58.249Z,7.59
2023-04-12T01:46:03.471Z,7.59
2023-04-12T01:48:11.480Z,7.57
2023-04-12T01:50:24.557Z,7.57
2023-04-12T01:52:34.402Z,7.57
2023-04-12T01:54:42.326Z,7.59
2023-04-12T01:56:50.366Z,7.56
2023-04-12T01:59:00.262Z,7.60
2023-04-12T02:01:06.226Z,7.61
2023-04-12T02:03:12.608Z,7.61
2023-04-12T02:05:19.290Z,7.56
2023-04-12T02:07:25.014Z,7.52
2023-04-12T02:09:30.274Z,7.51
2023-04-12T02:11:35.473Z,7.52
2023-04-12T02:13:41.028Z,7.51
2023-04-12T02:15:49.236Z,7.48
2023-04-12T02:17:54.811Z,7.51
2023-04-12T02:19:59.924Z,7.50
2023-04-12T02:22:06.174Z,7.48
2023-04-12T02:24:11.499Z,7.46
2023-04-12T02:26:17.176Z,7.48
2023-04-12T02:28:26.286Z,7.45
2023-04-12T02:30:31.465Z,7.47
2023-04-12T02:32:44.309Z,7.46
2023-04-12T02:34:51.608Z,7.43
2023-04-12T02:36:59.206Z,7.48
2023-04-12T02:39:12.841Z,7.48
2023-04-12T02:41:20.830Z,7.52
2023-04-12T02:43:26.086Z,7.47
2023-04-12T02:45:31.974Z,7.47
2023-04-12T02:47:41.239Z,7.50
2023-04-12T02:49:46.522Z,7.54
2023-04-12T02:51:52.916Z,7.52
2023-04-12T02:54:00.381Z,7.54
2023-04-12T02:56:07.501Z,7.53
2023-04-12T02:58:13.130Z,7.52
2023-04-12T03:00:22.087Z,7.52
2023-04-12T03:02:27.181Z,7.53
2023-04-12T03:04:37.813Z,7.55
2023-04-12T03:06:52.955Z,7.57
2023-04-12T03:08:58.003Z,7.52
2023-04-12T03:11:02.928Z,7.53
2023-04-12T03:13:08.050Z,7.57
2023-04-12T03:15:14.169Z,7.58
2023-04-12T03:17:19.606Z,7.57
2023-04-12T03:19:25.534Z,7.57
2023-04-12T03:21:33.801Z,7.58
2023-04-12T03:23:38.647Z,7.60
2023-04-12T03:25:48.974Z,7.60
2023-04-12T03:27:53.929Z,7.60
2023-04-12T03:30:00.474Z,7.60
2023-04-12T03:32:05.426Z,7.61
2023-04-12T03:34:10.556Z,7.65
2023-04-12T03:36:15.864Z,7.63
2023-04-12T03:38:23.752Z,7.63
2023-04-12T03:40:31.462Z,7.63
2023-04-12T03:42:39.714Z,7.62
2023-04-12T03:44:47.090Z,7.63
2023-04-12T03:46:55.341Z,7.66
2023-04-12T03:49:00.545Z,7.65
2023-04-12T03:51:07.935Z,7.64
2023-04-12T03:53:12.984Z,7.66
2023-04-12T03:55:21.334Z,7.65
2023-04-12T03:57:27.263Z,7.67
2023-04-12T03:59:35.500Z,7.71
2023-04-12T04:01:43.848Z,7.73
2023-04-12T04:03:49.364Z,7.68
2023-04-12T04:05:54.475Z,7.72
2023-04-12T04:08:02.679Z,7.73
2023-04-12T04:10:08.873Z,7.79
2023-04-12T04:12:16.806Z,7.83
2023-04-12T04:14:25.914Z,7.79
2023-04-12T04:16:30.399Z,7.83
2023-04-12T04:18:36.457Z,7.85
2023-04-12T04:20:44.245Z,7.83
2023-04-12T04:22:50.254Z,7.81
2023-04-12T04:24:56.925Z,7.84
2023-04-12T04:27:02.068Z,7.87
2023-04-12T04:29:10.217Z,7.87
2023-04-12T04:31:20.139Z,7.86
2023-04-12T04:33:28.022Z,7.83
2023-04-12T04:35:32.998Z,7.83
2023-04-12T04:37:38.368Z,7.83
2023-04-12T04:39:43.622Z,7.85
2023-04-12T04:41:55.130Z,7.83
2023-04-12T04:44:00.844Z,7.86
2023-04-12T04:46:12.004Z,7.90
2023-04-12T04:48:19.223Z,7.89
2023-04-12T04:50:25.590Z,7.93
2023-04-12T04:52:30.559Z,7.94
2023-04-12T04:54:36.319Z,7.97
2023-04-12T04:56:41.574Z,7.99
2023-04-12T04:58:46.742Z,8.00
2023-04-12T05:00:56.847Z,8.02
2023-04-12T05:03:05.192Z,8.07
2023-04-12T05:05:12.781Z,8.07
2023-04-12T05:07:19.064Z,8.16
2023-04-12T05:09:25.316Z,8.18
2023-04-12T05:11:30.529Z,8.21
2023-04-12T05:13:38.677Z,8.29
2023-04-12T05:15:47.496Z,8.32
2023-04-12T05:17:57.155Z,8.35
2023-04-12T05:20:09.077Z,8.40
2023-04-12T05:22:14.844Z,8.39
2023-04-12T05:24:20.074Z,8.41
2023-04-12T05:26:25.733Z,8.36
2023-04-12T05:28:31.187Z,8.35
2023-04-12T05:30:37.340Z,8.41
2023-04-12T05:32:42.622Z,8.39
2023-04-12T05:34:48.171Z,8.40
2023-04-12T05:36:57.110Z,8.36
2023-04-12T05:39:02.008Z,8.38
2023-04-12T05:41:07.467Z,8.39
2023-04-12T05:43:13.185Z,8.38
2023-04-12T05:45:21.115Z,8.39
2023-04-12T05:47:27.015Z,8.40
2023-04-12T05:49:33.126Z,8.39
2023-04-12T05:51:41.382Z,8.39
2023-04-12T05:53:49.226Z,8.39
2023-04-12T05:55:55.444Z,8.39
2023-04-12T05:58:01.496Z,8.40
2023-04-12T06:00:13.486Z,8.39
2023-04-12T06:02:20.309Z,8.36
2023-04-12T06:04:34.932Z,8.35
2023-04-12T06:06:54.376Z,8.36
2023-04-12T06:09:04.931Z,8.42
2023-04-12T06:11:12.221Z,8.44
2023-04-12T06:13:18.961Z,8.48
2023-04-12T06:15:23.829Z,8.44
2023-04-12T06:17:33.788Z,8.51
2023-04-12T06:19:38.700Z,8.49
2023-04-12T06:21:43.687Z,8.46
2023-04-12T06:23:50.461Z,8.43
2023-04-12T06:25:57.959Z,8.40
2023-04-12T06:28:03.528Z,8.46
2023-04-12T06:30:10.356Z,8.42
2023-04-12T06:32:15.620Z,8.35
2023-04-12T06:34:20.832Z,8.36
2023-04-12T06:36:26.675Z,8.36
2023-04-12T06:38:31.524Z,8.39
2023-04-12T06:40:36.664Z,8.45
2023-04-12T06:42:44.249Z,8.52
2023-04-12T06:44:49.605Z,8.54
2023-04-12T06:46:54.561Z,8.63
2023-04-12T06:49:00.665Z,8.67
2023-04-12T06:51:05.695Z,8.73
2023-04-12T06:53:11.019Z,8.81
2023-04-12T06:55:15.990Z,8.75
2023-04-12T06:57:21.398Z,8.78
2023-04-12T06:59:29.635Z,8.79
2023-04-12T07:01:34.631Z,8.85
2023-04-12T07:03:39.954Z,8.88
2023-04-12T07:05:45.349Z,8.92
2023-04-12T07:07:50.234Z,9.04
2023-04-12T07:09:55.868Z,9.11
2023-04-12T07:12:00.803Z,9.20
2023-04-12T07:14:05.750Z,9.14
2023-04-12T07:16:13.489Z,9.08
2023-04-12T07:18:19.895Z,9.02
2023-04-12T07:20:25.300Z,9.01
2023-04-12T07:22:30.267Z,9.12
2023-04-12T07:24:35.320Z,9.65
2023-04-12T07:26:41.411Z,10.08
2023-04-12T07:28:46.455Z,10.47
2023-04-12T07:30:52.894Z,10.70
2023-04-12T07:33:12.282Z,10.92
2023-04-12T07:35:24.644Z,11.02
2023-04-12T07:37:31.177Z,10.81
2023-04-12T07:39:40.808Z,10.86
2023-04-12T07:41:49.452Z,10.69
2023-04-12T07:43:55.745Z,10.44
2023-04-12T07:46:04.796Z,10.28
2023-04-12T07:48:12.681Z,10.23
2023-04-12T07:50:19.120Z,10.27
2023-04-12T07:52:27.332Z,10.36
2023-04-12T07:54:32.580Z,10.64
2023-04-12T07:56:39.222Z,11.20
2023-04-12T07:58:44.586Z,11.29
2023-04-12T08:00:50.210Z,10.90
2023-04-12T08:02:55.539Z,10.80
2023-04-12T08:05:03.067Z,10.81
2023-04-12T08:07:08.069Z,10.66
2023-04-12T08:09:13.611Z,10.53
2023-04-12T08:11:18.946Z,10.71
2023-04-12T08:13:24.093Z,10.84
2023-04-12T08:15:38.149Z,10.90
2023-04-12T08:17:44.331Z,11.19
2023-04-12T08:19:49.304Z,11.19
2023-04-12T08:21:57.138Z,11.35
2023-04-12T08:24:02.440Z,11.24
2023-04-12T08:26:07.919Z,11.26
2023-04-12T08:28:12.911Z,11.29
2023-04-12T08:30:19.911Z,11.01
2023-04-12T08:32:25.978Z,11.16
2023-04-12T08:34:31.092Z,11.31
2023-04-12T08:36:36.220Z,11.60
2023-04-12T08:38:46.019Z,11.43
2023-04-12T08:40:54.100Z,11.56
2023-04-12T08:43:06.074Z,11.83
2023-04-12T08:45:16.150Z,11.84
2023-04-12T08:47:23.964Z,12.09
2023-04-12T08:49:31.814Z,12.05
2023-04-12T08:51:38.092Z,12.17
2023-04-12T08:53:45.923Z,12.06
2023-04-12T08:55:52.607Z,12.21
2023-04-12T08:57:58.812Z,11.96
2023-04-12T09:00:04.430Z,12.18
2023-04-12T09:02:09.369Z,12.13
2023-04-12T09:04:14.449Z,11.92
2023-04-12T09:06:19.474Z,12.01
2023-04-12T09:08:25.609Z,11.87
2023-04-12T09:10:38.268Z,12.01
2023-04-12T09:12:51.709Z,12.20
2023-04-12T09:15:21.805Z,11.89
2023-04-12T09:17:34.096Z,12.22
2023-04-12T09:19:39.564Z,12.34
2023-04-12T09:22:00.003Z,12.70
2023-04-12T09:24:14.931Z,12.29
2023-04-12T09:26:33.301Z,12.34
2023-04-12T09:28:38.362Z,12.39
2023-04-12T09:30:44.954Z,12.41
2023-04-12T09:32:54.797Z,12.25
2023-04-12T09:35:02.655Z,12.37
2023-04-12T09:37:19.221Z,12.19
2023-04-12T09:39:33.349Z,12.11
2023-04-12T09:41:42.394Z,12.14
2023-04-12T09:43:47.434Z,12.24
2023-04-12T09:45:52.391Z,12.24
2023-04-12T09:47:58.469Z,12.26
2023-04-12T09:50:04.980Z,12.53
2023-04-12T09:52:11.329Z,13.14
2023-04-12T09:54:16.820Z,13.74
2023-04-12T09:56:26.401Z,13.34
2023-04-12T09:58:36.765Z,13.76
2023-04-12T10:00:42.909Z,13.14
2023-04-12T10:02:51.569Z,13.42
2023-04-12T10:04:57.914Z,13.80
2023-04-12T10:07:03.797Z,13.80
2023-04-12T10:09:09.285Z,14.11
2023-04-12T10:11:14.751Z,13.46
2023-04-12T10:13:23.826Z,13.08
2023-04-12T10:15:33.409Z,12.87
2023-04-12T10:17:39.773Z,12.43
2023-04-12T10:19:46.420Z,12.48
2023-04-12T10:21:54.113Z,13.10
2023-04-12T10:24:00.176Z,13.61
2023-04-12T10:26:08.287Z,13.53
2023-04-12T10:28:21.939Z,13.46
2023-04-12T10:30:32.379Z,13.42
2023-04-12T10:32:39.993Z,13.77
2023-04-12T10:34:45.966Z,13.53
2023-04-12T10:36:58.926Z,14.04
2023-04-12T10:39:12.717Z,14.23
2023-04-12T10:41:20.252Z,14.31
2023-04-12T10:43:29.025Z,14.30
2023-04-12T10:45:43.662Z,14.11
2023-04-12T10:48:04.426Z,14.78
2023-04-12T10:50:25.379Z,14.53
2023-04-12T10:52:30.574Z,14.24
2023-04-12T10:54:38.402Z,14.22
2023-04-12T10:56:45.075Z,14.19
2023-04-12T10:59:02.544Z,14.46
2023-04-12T11:01:21.743Z,14.67
2023-04-12T11:03:28.525Z,13.91
2023-04-12T11:05:37.117Z,14.06
2023-04-12T11:07:43.485Z,14.07
2023-04-12T11:09:51.114Z,13.93
2023-04-12T11:12:02.403Z,13.60
2023-04-12T11:14:08.457Z,13.81
2023-04-12T11:16:16.393Z,13.82
2023-04-12T11:18:24.974Z,13.18
2023-04-12T11:20:30.568Z,13.06
2023-04-12T11:22:36.733Z,13.17
2023-04-12T11:24:42.556Z,12.57
2023-04-12T11:26:49.246Z,12.63
2023-04-12T11:28:56.416Z,13.06
2023-04-12T11:31:02.132Z,13.16
2023-04-12T11:33:14.798Z,13.10
2023-04-12T11:35:24.624Z,13.38
2023-04-12T11:37:29.867Z,13.14
2023-04-12T11:39:35.448Z,13.16
2023-04-12T11:41:48.943Z,12.96
2023-04-12T11:43:55.512Z,12.64
2023-04-12T11:46:02.476Z,12.77
2023-04-12T11:48:14.115Z,12.87
2023-04-12T11:50:32.737Z,12.74
2023-04-12T11:52:38.076Z,12.72
2023-04-12T11:54:47.730Z,12.35
2023-04-12T11:56:53.039Z,12.31
2023-04-12T11:58:58.086Z,12.51
2023-04-12T12:01:03.840Z,12.00
2023-04-12T12:03:09.111Z,12.04
2023-04-12T12:05:19.367Z,11.86
2023-04-12T12:07:26.044Z,11.84
2023-04-12T12:09:31.726Z,11.65
2023-04-12T12:11:39.308Z,11.69
2023-04-12T12:13:50.485Z,11.54
2023-04-12T12:15:55.989Z,11.58
2023-04-12T12:18:02.362Z,11.68
2023-04-12T12:20:22.543Z,11.04
2023-04-12T12:22:29.990Z,10.66
2023-04-12T12:24:36.287Z,10.85
2023-04-12T12:26:45.758Z,10.83
2023-04-12T12:28:57.278Z,11.31
2023-04-12T12:31:02.333Z,11.40
2023-04-12T12:33:07.906Z,11.45
2023-04-12T12:35:14.820Z,11.49
2023-04-12T12:37:23.846Z,11.62
2023-04-12T12:39:41.375Z,11.55
2023-04-12T12:41:49.118Z,11.80
2023-04-12T12:43:58.006Z,12.08
2023-04-12T12:46:09.661Z,12.48
2023-04-12T12:48:14.920Z,12.39
2023-04-12T12:50:24.708Z,11.74
2023-04-12T12:52:41.263Z,12.14
2023-04-12T12:54:54.023Z,12.17
2023-04-12T12:57:04.607Z,12.32
2023-04-12T12:59:10.835Z,12.21
2023-04-12T13:01:16.062Z,12.86
2023-04-12T13:03:25.162Z,12.82
2023-04-12T13:05:30.313Z,12.94
2023-04-12T13:07:41.417Z,12.97
2023-04-12T13:09:49.826Z,13.02
2023-04-12T13:11:54.760Z,11.93
2023-04-12T13:14:00.170Z,12.19
2023-04-12T13:16:05.471Z,12.20
2023-04-12T13:18:11.999Z,12.14
2023-04-12T13:20:19.255Z,11.91
2023-04-12T13:22:24.542Z,11.94
2023-04-12T13:24:29.536Z,12.20
2023-04-12T13:26:39.992Z,12.00
2023-04-12T13:28:49.959Z,11.77
2023-04-12T13:30:58.576Z,11.65
2023-04-12T13:33:06.589Z,12.02
2023-04-12T13:35:12.067Z,12.14
2023-04-12T13:37:20.067Z,11.91
2023-04-12T13:39:25.136Z,11.76
2023-04-12T13:41:32.266Z,11.84
2023-04-12T13:43:39.917Z,11.99
2023-04-12T13:45:45.130Z,11.64
2023-04-12T13:47:50.268Z,11.58
2023-04-12T13:49:55.360Z,11.57
2023-04-12T13:52:00.889Z,11.47
2023-04-12T13:54:07.029Z,11.54
2023-04-12T13:56:12.384Z,11.43
2023-04-12T13:58:19.742Z,11.23
2023-04-12T14:00:27.546Z,11.31
2023-04-12T14:02:33.498Z,11.01
2023-04-12T14:04:38.676Z,11.97
2023-04-12T14:06:45.832Z,12.52
2023-04-12T14:08:52.917Z,12.85
2023-04-12T14:10:58.032Z,12.74
2023-04-12T14:13:03.482Z,12.46
2023-04-12T14:15:09.971Z,11.99
2023-04-12T14:17:20.372Z,12.06
2023-04-12T14:19:25.911Z,12.58
2023-04-12T14:21:30.768Z,12.28
2023-04-12T14:23:36.578Z,12.42
2023-04-12T14:25:42.757Z,12.17
2023-04-12T14:27:48.212Z,12.29
2023-04-12T14:29:53.036Z,12.23
2023-04-12T14:31:58.088Z,12.61
2023-04-12T14:34:06.502Z,12.36
2023-04-12T14:36:12.033Z,12.18
2023-04-12T14:38:18.303Z,11.98
2023-04-12T14:40:23.724Z,11.90
2023-04-12T14:42:33.885Z,12.00
2023-04-12T14:44:39.027Z,11.82
2023-04-12T14:46:44.624Z,11.65
2023-04-12T14:48:49.521Z,11.94
2023-04-12T14:50:57.291Z,12.19
2023-04-12T14:53:02.124Z,11.80
2023-04-12T14:55:07.486Z,11.74
2023-04-12T14:57:12.692Z,11.60
2023-04-12T14:59:20.423Z,11.40
2023-04-12T15:01:26.273Z,11.32
2023-04-12T15:03:36.127Z,11.31
2023-04-12T15:05:41.573Z,11.48
2023-04-12T15:07:50.115Z,11.74
2023-04-12T15:09:55.501Z,11.53
2023-04-12T15:12:04.204Z,11.60
2023-04-12T15:14:09.599Z,11.91
2023-04-12T15:16:15.317Z,12.03
2023-04-12T15:18:21.014Z,11.58
2023-04-12T15:20:26.138Z,11.96
2023-04-12T15:22:32.206Z,12.03
2023-04-12T15:24:42.274Z,12.16
2023-04-12T15:26:48.957Z,11.96
2023-04-12T15:28:54.333Z,11.80
2023-04-12T15:30:59.365Z,11.76
2023-04-12T15:33:04.386Z,11.88
2023-04-12T15:35:25.381Z,11.61
2023-04-12T15:37:33.914Z,11.67
2023-04-12T15:39:41.736Z,11.64
2023-04-12T15:41:48.706Z,11.92
2023-04-12T15:43:54.122Z,11.80
2023-04-12T15:45:59.294Z,11.85
2023-04-12T15:48:04.571Z,11.79
2023-04-12T15:50:12.883Z,11.85
2023-04-12T15:52:20.925Z,12.14
2023-04-12T15:54:26.260Z,12.17
2023-04-12T15:56:35.596Z,12.00
2023-04-12T15:58:42.011Z,12.27
2023-04-12T16:00:51.325Z,12.35
2023-04-12T16:02:57.721Z,12.33
2023-04-12T16:05:02.871Z,12.30
2023-04-12T16:07:08.412Z,12.18
2023-04-12T16:09:15.653Z,12.11
2023-04-12T16:11:24.716Z,12.05
2023-04-12T16:13:34.238Z,11.98
2023-04-12T16:15:39.842Z,12.03
2023-04-12T16:17:45.482Z,12.11
2023-04-12T16:19:56.826Z,11.76
2023-04-12T16:22:01.952Z,11.85
2023-04-12T16:24:08.117Z,11.68
2023-04-12T16:26:19.804Z,11.57
2023-04-12T16:28:25.276Z,11.55
2023-04-12T16:30:34.427Z,11.59
2023-04-12T16:32:39.343Z,11.64
2023-04-12T16:34:45.283Z,11.64
2023-04-12T16:36:51.435Z,11.50
2023-04-12T16:38:59.495Z,11.52
2023-04-12T16:41:10.046Z,11.60
2023-04-12T16:43:15.260Z,11.43
2023-04-12T16:45:21.305Z,11.47
2023-04-12T16:47:29.328Z,11.64
2023-04-12T16:49:37.803Z,11.54
2023-04-12T16:51:43.050Z,11.56
2023-04-12T16:53:49.105Z,11.61
2023-04-12T16:56:02.945Z,11.54
2023-04-12T16:58:07.989Z,11.47
2023-04-12T17:00:21.186Z,11.34
2023-04-12T17:02:29.034Z,11.22
2023-04-12T17:04:34.698Z,11.05
2023-04-12T17:06:41.451Z,11.04
2023-04-12T17:08:50.844Z,10.89
2023-04-12T17:10:57.748Z,10.80
2023-04-12T17:13:11.687Z,10.72
2023-04-12T17:15:34.300Z,10.61
2023-04-12T17:17:42.756Z,10.52
2023-04-12T17:20:03.151Z,10.52
2023-04-12T17:22:11.848Z,10.43
2023-04-12T17:24:18.184Z,10.52
2023-04-12T17:26:27.499Z,10.51
2023-04-12T17:28:43.652Z,10.50
2023-04-12T17:30:52.148Z,10.51
2023-04-12T17:33:03.986Z,10.50
2023-04-12T17:35:12.824Z,10.44
2023-04-12T17:37:20.923Z,10.44
2023-04-12T17:39:28.624Z,10.36
2023-04-12T17:41:35.974Z,10.34
2023-04-12T17:43:51.185Z,10.29
2023-04-12T17:46:00.829Z,10.29
2023-04-12T17:48:23.974Z,10.15
2023-04-12T17:50:43.863Z,10.11
2023-04-12T17:52:49.087Z,10.07
2023-04-12T17:54:54.331Z,10.06
2023-04-12T17:56:59.353Z,10.05
2023-04-12T17:59:05.824Z,9.99
2023-04-12T18:01:11.310Z,9.96
2023-04-12T18:03:22.381Z,9.93
2023-04-12T18:05:28.072Z,9.92
2023-04-12T18:07:33.346Z,9.86
2023-04-12T18:09:39.298Z,9.86
2023-04-12T18:11:45.155Z,9.83
2023-04-12T18:13:50.271Z,9.71
2023-04-12T18:15:56.847Z,9.70
2023-04-12T18:18:01.814Z,9.68
2023-04-12T18:20:12.725Z,9.65
2023-04-12T18:22:20.589Z,9.60
2023-04-12T18:24:26.764Z,9.54
2023-04-12T18:26:32.182Z,9.57
2023-04-12T18:28:39.053Z,9.54
2023-04-12T18:30:45.347Z,9.54
2023-04-12T18:32:52.731Z,9.51
2023-04-12T18:34:57.851Z,9.52
2023-04-12T18:37:06.935Z,9.50
2023-04-12T18:39:11.922Z,9.45
2023-04-12T18:41:20.047Z,9.50
2023-04-12T18:43:24.922Z,9.45
2023-04-12T18:45:29.787Z,9.41
2023-04-12T18:47:42.625Z,9.34
2023-04-12T18:49:58.670Z,9.34
2023-04-12T18:52:07.287Z,9.30
2023-04-12T18:54:15.208Z,9.31
2023-04-12T18:56:23.889Z,9.28
2023-04-12T18:58:50.509Z,9.30
2023-04-12T19:00:58.566Z,9.25
2023-04-12T19:03:03.876Z,9.25
2023-04-12T19:05:10.442Z,9.28
2023-04-12T19:07:20.459Z,9.19
2023-04-12T19:09:25.598Z,9.12
2023-04-12T19:11:30.862Z,9.13
2023-04-12T19:13:37.312Z,9.14
2023-04-12T19:15:42.685Z,9.07
2023-04-12T19:17:49.677Z,9.04
2023-04-12T19:19:54.758Z,9.05
2023-04-12T19:22:00.126Z,9.12
2023-04-12T19:24:09.270Z,9.08
2023-04-12T19:26:14.178Z,9.03
2023-04-12T19:28:19.911Z,8.98
2023-04-12T19:30:25.093Z,8.96
2023-04-12T19:32:31.540Z,8.89
2023-04-12T19:34:36.970Z,8.87
2023-04-12T19:36:43.548Z,8.88
2023-04-12T19:38:50.796Z,8.90
2023-04-12T19:40:58.375Z,8.89
2023-04-12T19:43:03.517Z,8.88
2023-04-12T19:45:10.727Z,8.95
2023-04-12T19:47:15.865Z,8.92
2023-04-12T19:49:23.013Z,9.02
2023-04-12T19:51:28.330Z,9.03
2023-04-12T19:53:33.607Z,8.99
2023-04-12T19:55:39.281Z,8.99
2023-04-12T19:57:50.026Z,8.97
2023-04-12T19:59:55.680Z,8.90
2023-04-12T20:02:01.314Z,9.02
2023-04-12T20:04:06.527Z,8.92
2023-04-12T20:06:14.568Z,8.86
2023-04-12T20:08:20.406Z,8.89
2023-04-12T20:10:25.839Z,8.91
2023-04-12T20:12:31.344Z,8.87
2023-04-12T20:14:39.813Z,8.87
2023-04-12T20:16:45.529Z,8.81
2023-04-12T20:18:55.845Z,8.83
2023-04-12T20:21:00.793Z,8.96
2023-04-12T20:23:06.306Z,8.92
2023-04-12T20:25:13.473Z,8.90
2023-04-12T20:27:20.262Z,8.86
2023-04-12T20:29:25.116Z,8.87
2023-04-12T20:31:32.891Z,8.90
2023-04-12T20:33:37.985Z,8.90
2023-04-12T20:35:44.153Z,8.86
2023-04-12T20:37:51.293Z,8.81
2023-04-12T20:39:56.217Z,8.82
2023-04-12T20:42:01.525Z,8.77
2023-04-12T20:44:06.742Z,8.72
2023-04-12T20:46:15.707Z,8.72
2023-04-12T20:48:23.508Z,8.82
2023-04-12T20:50:31.630Z,8.71
2023-04-12T20:52:36.705Z,8.79
2023-04-12T20:54:41.822Z,8.77
2023-04-12T20:56:49.120Z,8.76
2023-04-12T20:58:54.191Z,8.77
2023-04-12T21:00:59.280Z,8.76
2023-04-12T21:05:27.499Z,8.54
2023-04-12T21:07:32.450Z,8.44
2023-04-12T21:09:42.758Z,8.39
2023-04-12T21:11:50.580Z,8.36
2023-04-12T21:13:58.426Z,8.26
2023-04-12T21:16:05.737Z,8.24
2023-04-12T21:18:10.947Z,8.26
2023-04-12T21:20:19.329Z,8.20
2023-04-12T21:22:26.984Z,8.24
2023-04-12T21:24:39.967Z,8.26
2023-04-12T21:26:45.787Z,8.26
2023-04-12T21:28:53.585Z,8.18
2023-04-12T21:30:58.803Z,8.05
2023-04-12T21:33:04.565Z,8.02
2023-04-12T21:35:11.378Z,7.89
2023-04-12T21:37:17.728Z,7.82
2023-04-12T21:39:25.226Z,7.71
2023-04-12T21:41:30.157Z,7.50
2023-04-12T21:43:35.077Z,7.33
2023-04-12T21:45:40.818Z,7.01
2023-04-12T21:47:45.951Z,6.85
2023-04-12T21:49:54.889Z,6.62
2023-04-12T21:51:59.890Z,6.52
2023-04-12T21:54:04.818Z,6.50
2023-04-12T21:56:13.851Z,6.43
2023-04-12T21:58:21.211Z,6.42
2023-04-12T22:00:27.434Z,6.40
2023-04-12T22:02:32.646Z,6.38
2023-04-12T22:04:37.885Z,6.34
2023-04-12T22:06:44.729Z,6.31
2023-04-12T22:08:49.882Z,6.35
2023-04-12T22:10:56.544Z,6.38
2023-04-12T22:13:04.236Z,6.34
2023-04-12T22:15:12.075Z,6.40
2023-04-12T22:17:19.914Z,6.44
2023-04-12T22:19:29.827Z,6.46
2023-04-12T22:21:34.894Z,6.47
2023-04-12T22:23:40.955Z,6.49
2023-04-12T22:25:46.201Z,6.47
2023-04-12T22:27:57.979Z,6.57
2023-04-12T22:30:06.745Z,6.57
2023-04-12T22:32:12.244Z,6.61
2023-04-12T22:34:17.500Z,6.57
2023-04-12T22:36:25.991Z,6.63
2023-04-12T22:38:32.140Z,6.57
2023-04-12T22:40:37.101Z,6.58
2023-04-12T22:42:48.020Z,6.61
2023-04-12T22:44:55.150Z,6.62
2023-04-12T22:47:04.146Z,6.61
2023-04-12T22:49:09.311Z,6.62
2023-04-12T22:51:14.331Z,6.58
2023-04-12T22:53:23.283Z,6.59
2023-04-12T22:55:28.398Z,6.60
2023-04-12T22:57:33.305Z,6.57
2023-04-12T22:59:38.248Z,6.59
2023-04-12T23:01:44.091Z,6.59
2023-04-12T23:03:54.442Z,6.57
2023-04-12T23:05:59.719Z,6.54
2023-04-12T23:08:05.324Z,6.55
2023-04-12T23:10:12.456Z,6.52
2023-04-12T23:12:18.999Z,6.54
2023-04-12T23:14:24.227Z,6.51
2023-04-12T23:16:31.829Z,6.52
2023-04-12T23:18:38.084Z,6.52
2023-04-12T23:20:50.892Z,6.56
2023-04-12T23:22:59.046Z,6.62
2023-04-12T23:25:04.253Z,6.58
2023-04-12T23:27:10.595Z,6.59
2023-04-12T23:29:15.837Z,6.62
2023-04-12T23:31:22.937Z,6.65
2023-04-12T23:33:28.555Z,6.62
2023-04-12T23:35:39.900Z,6.62
2023-04-12T23:37:48.760Z,6.64
2023-04-12T23:40:02.835Z,6.63
2023-04-12T23:42:07.761Z,6.63
2023-04-12T23:44:13.884Z,6.64
2023-04-12T23:46:19.224Z,6.65
2023-04-12T23:48:24.664Z,6.60
2023-04-12T23:50:29.819Z,6.59
2023-04-12T23:52:34.966Z,6.55
2023-04-12T23:54:42.366Z,6.52
2023-04-12T23:56:47.362Z,6.55
2023-04-12T23:58:52.427Z,6.46
